createdAt,value
2019-04-30T00:00:56.335Z,98.50
2019-04-30T00:03:29.303Z,98.50
2019-04-30T00:05:58.169Z,98.40
2019-04-30T00:08:30.232Z,98.90
2019-04-30T00:10:57.178Z,98.60
2019-04-30T00:13:25.933Z,98.70
2019-04-30T00:15:58.714Z,98.60
2019-04-30T00:18:25.504Z,98.60
2019-04-30T00:20:55.409Z,98.70
2019-04-30T00:23:27.142Z,98.90
2019-04-30T00:25:58.330Z,99.00
2019-04-30T00:28:25.528Z,98.90
2019-04-30T00:30:56.233Z,98.40
2019-04-30T00:33:25.631Z,98.70
2019-04-30T00:35:57.820Z,98.50
2019-04-30T00:38:25.350Z,98.90
2019-04-30T00:40:55.738Z,98.50
2019-04-30T00:43:25.270Z,98.60
2019-04-30T00:45:55.148Z,98.80
2019-04-30T00:48:27.865Z,98.70
2019-04-30T00:50:55.789Z,98.50
2019-04-30T00:53:26.248Z,98.60
2019-04-30T00:55:57.057Z,98.80
2019-04-30T00:58:30.271Z,98.70
2019-04-30T01:01:15.226Z,98.70
2019-04-30T01:03:49.390Z,98.70
2019-04-30T01:06:17.240Z,98.80
2019-04-30T01:08:46.615Z,98.70
2019-04-30T01:11:15.484Z,98.70
2019-04-30T01:13:50.216Z,98.90
2019-04-30T01:16:14.614Z,98.60
2019-04-30T01:18:43.300Z,98.70
2019-04-30T01:21:12.001Z,98.70
2019-04-30T01:23:47.868Z,98.70
2019-04-30T01:26:11.203Z,98.60
2019-04-30T01:28:39.877Z,98.70
2019-04-30T01:31:08.970Z,98.90
2019-04-30T01:33:39.018Z,98.60
2019-04-30T01:36:09.514Z,98.80
2019-04-30T01:38:40.031Z,98.80
2019-04-30T01:41:09.433Z,98.80
2019-04-30T01:43:38.569Z,98.80
2019-04-30T01:46:12.165Z,98.60
2019-04-30T01:48:39.289Z,98.60
2019-04-30T01:51:09.027Z,98.60
2019-04-30T01:53:38.725Z,98.90
2019-04-30T01:56:14.890Z,98.70
2019-04-30T01:58:45.189Z,98.60
2019-04-30T02:01:21.372Z,98.40
2019-04-30T02:03:50.070Z,98.70
2019-04-30T02:06:19.718Z,98.70
2019-04-30T02:08:49.397Z,98.70
2019-04-30T02:11:18.973Z,98.70
2019-04-30T02:13:49.215Z,98.80
2019-04-30T02:16:18.696Z,99.00
2019-04-30T02:18:49.545Z,99.00
2019-04-30T02:21:19.474Z,98.80
2019-04-30T02:23:49.310Z,98.90
2019-04-30T02:26:18.709Z,99.00
2019-04-30T02:28:49.348Z,98.80
2019-04-30T02:31:22.311Z,99.10
2019-04-30T02:33:50.242Z,98.90
2019-04-30T02:36:40.054Z,99.20
2019-04-30T02:39:10.834Z,99.20
2019-04-30T02:41:41.209Z,99.40
2019-04-30T02:44:11.059Z,99.30
2019-04-30T02:46:41.642Z,99.70
2019-04-30T02:49:11.863Z,99.30
2019-04-30T02:51:42.114Z,99.50
2019-04-30T02:54:13.817Z,99.60
2019-04-30T02:56:44.146Z,99.60
2019-04-30T02:59:12.851Z,99.70
2019-04-30T03:01:41.552Z,99.80
2019-04-30T03:04:10.306Z,99.80
2019-04-30T03:06:40.129Z,99.80
2019-04-30T03:09:10.325Z,99.60
2019-04-30T03:11:40.755Z,99.90
2019-04-30T03:14:10.350Z,99.70
2019-04-30T03:16:52.756Z,99.80
2019-04-30T03:19:31.553Z,99.90
2019-04-30T03:22:13.971Z,99.90
2019-04-30T03:24:43.101Z,99.90
2019-04-30T03:27:11.864Z,99.90
2019-04-30T03:29:40.777Z,99.90
2019-04-30T03:32:13.669Z,99.90
2019-04-30T03:34:42.038Z,99.90
2019-04-30T03:37:10.223Z,99.90
2019-04-30T03:39:40.009Z,99.90
2019-04-30T03:42:10.023Z,99.90
2019-04-30T03:44:40.054Z,99.90
2019-04-30T03:47:10.900Z,99.90
2019-04-30T03:49:40.216Z,99.90
2019-04-30T03:52:12.579Z,99.90
2019-04-30T03:54:40.825Z,99.90
2019-04-30T03:57:10.682Z,99.90
2019-04-30T03:59:39.891Z,99.90
2019-04-30T04:02:12.869Z,99.90
2019-04-30T04:04:45.334Z,99.90
2019-04-30T04:07:33.430Z,99.90
2019-04-30T04:10:19.553Z,99.90
2019-04-30T04:12:49.884Z,99.90
2019-04-30T04:15:19.934Z,99.90
2019-04-30T04:17:50.462Z,99.90
2019-04-30T04:20:20.230Z,99.90
2019-04-30T04:22:49.664Z,99.90
2019-04-30T04:25:20.431Z,99.90
2019-04-30T04:27:50.904Z,99.90
2019-04-30T04:30:20.451Z,99.90
2019-04-30T04:32:50.111Z,99.90
2019-04-30T04:35:19.757Z,99.90
2019-04-30T04:37:49.441Z,99.90
2019-04-30T04:40:20.990Z,99.90
2019-04-30T04:42:50.329Z,99.90
2019-04-30T04:45:19.871Z,99.90
2019-04-30T04:47:50.401Z,99.90
2019-04-30T04:50:20.069Z,99.90
2019-04-30T04:52:49.538Z,99.90
2019-04-30T04:55:21.853Z,99.90
2019-04-30T04:57:50.052Z,99.90
2019-04-30T05:00:24.895Z,99.90
2019-04-30T05:02:55.138Z,99.90
2019-04-30T05:05:23.827Z,99.90
2019-04-30T05:07:52.445Z,99.90
2019-04-30T05:10:21.160Z,99.90
2019-04-30T05:12:51.075Z,99.90
2019-04-30T05:15:19.914Z,99.90
2019-04-30T05:17:49.538Z,99.90
2019-04-30T05:20:25.238Z,99.90
2019-04-30T05:22:53.798Z,99.90
2019-04-30T05:25:22.278Z,99.90
2019-04-30T05:27:50.817Z,99.90
2019-04-30T05:30:21.021Z,99.90
2019-04-30T05:32:51.383Z,99.90
2019-04-30T05:35:20.072Z,99.90
2019-04-30T05:37:49.519Z,99.90
2019-04-30T05:40:19.431Z,99.90
2019-04-30T05:42:49.616Z,99.90
2019-04-30T05:45:21.534Z,99.90
2019-04-30T05:47:50.564Z,99.90
2019-04-30T05:50:19.960Z,99.90
2019-04-30T05:52:49.372Z,99.90
2019-04-30T05:55:19.826Z,99.90
2019-04-30T05:57:55.865Z,99.90
2019-04-30T06:00:19.400Z,99.90
2019-04-30T06:02:49.762Z,99.90
2019-04-30T06:05:18.900Z,99.90
2019-04-30T06:07:51.570Z,99.90
2019-04-30T06:10:22.847Z,99.90
2019-04-30T06:12:59.498Z,99.90
2019-04-30T06:15:30.028Z,99.90
2019-04-30T06:18:04.028Z,99.90
2019-04-30T06:20:29.149Z,99.90
2019-04-30T06:22:59.648Z,99.90
2019-04-30T06:25:37.288Z,99.90
2019-04-30T06:27:59.686Z,99.90
2019-04-30T06:30:29.859Z,99.90
2019-04-30T06:32:59.651Z,99.90
2019-04-30T06:35:29.456Z,99.90
2019-04-30T06:37:58.930Z,99.90
2019-04-30T06:40:29.351Z,99.90
2019-04-30T06:43:00.823Z,99.90
2019-04-30T06:45:30.322Z,99.90
2019-04-30T06:48:00.421Z,99.90
2019-04-30T06:50:29.334Z,99.90
2019-04-30T06:53:01.015Z,99.90
2019-04-30T06:55:30.656Z,99.90
2019-04-30T06:58:11.192Z,99.90
2019-04-30T07:00:37.086Z,99.90
2019-04-30T07:03:05.878Z,99.90
2019-04-30T07:05:34.486Z,99.90
2019-04-30T07:08:12.145Z,99.90
2019-04-30T07:10:52.935Z,99.90
2019-04-30T07:13:18.964Z,99.90
2019-04-30T07:15:48.971Z,99.90
2019-04-30T07:18:18.957Z,99.90
2019-04-30T07:20:48.690Z,99.90
2019-04-30T07:23:18.800Z,99.90
2019-04-30T07:25:51.374Z,99.90
2019-04-30T07:28:19.086Z,99.90
2019-04-30T07:30:49.392Z,99.90
2019-04-30T07:33:20.788Z,99.90
2019-04-30T07:35:49.839Z,99.90
2019-04-30T07:38:19.338Z,99.90
2019-04-30T07:40:49.297Z,99.90
2019-04-30T07:43:18.978Z,99.90
2019-04-30T07:45:49.593Z,99.90
2019-04-30T07:48:21.053Z,99.90
2019-04-30T07:50:51.425Z,99.90
2019-04-30T07:53:18.830Z,99.90
2019-04-30T07:55:49.406Z,99.90
2019-04-30T07:58:20.536Z,99.90
2019-04-30T08:00:50.352Z,99.90
2019-04-30T08:03:26.115Z,99.90
2019-04-30T08:06:03.783Z,99.90
2019-04-30T08:08:32.397Z,99.90
2019-04-30T08:11:01.109Z,99.90
2019-04-30T08:13:32.795Z,99.90
2019-04-30T08:15:59.934Z,99.90
2019-04-30T08:18:29.502Z,99.90
2019-04-30T08:20:58.671Z,99.90
2019-04-30T08:23:34.793Z,99.90
2019-04-30T08:25:58.842Z,99.90
2019-04-30T08:28:30.188Z,99.90
2019-04-30T08:30:58.958Z,99.90
2019-04-30T08:33:29.250Z,99.90
2019-04-30T08:36:00.793Z,99.90
2019-04-30T08:38:30.034Z,99.90
2019-04-30T08:41:00.755Z,99.90
2019-04-30T08:43:29.308Z,99.90
2019-04-30T08:45:59.510Z,99.90
2019-04-30T08:48:43.718Z,99.90
2019-04-30T08:50:59.148Z,99.90
2019-04-30T08:53:32.883Z,99.90
2019-04-30T08:55:59.173Z,99.90
2019-04-30T08:58:29.251Z,99.90
2019-04-30T09:00:58.812Z,99.90
2019-04-30T09:03:29.523Z,99.90
2019-04-30T09:06:02.624Z,99.90
2019-04-30T09:08:31.214Z,99.90
2019-04-30T09:10:59.905Z,99.90
2019-04-30T09:13:28.761Z,99.90
2019-04-30T09:15:59.257Z,99.90
2019-04-30T09:18:29.141Z,99.90
2019-04-30T09:21:04.159Z,99.90
2019-04-30T09:23:42.916Z,99.90
2019-04-30T09:25:58.655Z,99.90
2019-04-30T09:28:29.343Z,99.90
2019-04-30T09:30:58.696Z,99.90
2019-04-30T09:33:29.297Z,99.90
2019-04-30T09:35:59.421Z,99.90
2019-04-30T09:38:29.024Z,99.90
2019-04-30T09:40:59.419Z,99.90
2019-04-30T09:43:28.645Z,99.90
2019-04-30T09:45:59.155Z,99.90
2019-04-30T09:48:30.354Z,99.90
2019-04-30T09:51:00.488Z,99.90
2019-04-30T09:53:29.717Z,99.90
2019-04-30T09:55:59.641Z,99.90
2019-04-30T09:58:29.974Z,99.90
2019-04-30T10:00:59.323Z,99.90
2019-04-30T10:03:30.305Z,99.20
2019-04-30T10:05:59.059Z,98.50
2019-04-30T10:08:30.139Z,98.10
2019-04-30T10:11:12.238Z,97.60
2019-04-30T10:13:40.775Z,97.30
2019-04-30T10:16:14.557Z,96.80
2019-04-30T10:18:43.256Z,96.40
2019-04-30T10:21:11.974Z,96.30
2019-04-30T10:23:40.722Z,96.30
2019-04-30T10:26:09.423Z,95.50
2019-04-30T10:28:41.102Z,93.70
2019-04-30T10:31:09.798Z,93.60
2019-04-30T10:33:38.675Z,93.60
2019-04-30T10:36:09.293Z,94.80
2019-04-30T10:38:39.398Z,94.10
2019-04-30T10:41:08.815Z,93.70
2019-04-30T10:43:39.370Z,94.10
2019-04-30T10:46:09.710Z,94.50
2019-04-30T10:48:38.501Z,94.40
2019-04-30T10:51:08.933Z,94.70
2019-04-30T10:53:37.470Z,94.30
2019-04-30T10:56:06.146Z,93.70
2019-04-30T10:58:34.874Z,94.20
2019-04-30T11:01:03.536Z,94.60
2019-04-30T11:03:32.097Z,94.30
2019-04-30T11:06:00.717Z,94.10
2019-04-30T11:08:29.338Z,92.90
2019-04-30T11:10:58.014Z,90.90
2019-04-30T11:13:26.714Z,91.10
2019-04-30T11:15:55.494Z,91.30
2019-04-30T11:18:24.373Z,88.70
2019-04-30T11:20:53.259Z,90.30
2019-04-30T11:23:22.349Z,90.40
2019-04-30T11:25:51.873Z,90.40
2019-04-30T11:28:21.392Z,90.50
2019-04-30T11:30:51.997Z,90.60
2019-04-30T11:33:21.013Z,91.10
2019-04-30T11:36:01.698Z,91.40
2019-04-30T11:38:20.546Z,89.10
2019-04-30T11:40:49.329Z,83.80
2019-04-30T11:43:18.210Z,80.30
2019-04-30T11:45:54.338Z,81.40
2019-04-30T11:48:23.085Z,83.60
2019-04-30T11:50:51.742Z,86.40
2019-04-30T11:53:25.340Z,87.80
2019-04-30T11:55:50.644Z,85.90
2019-04-30T11:58:21.739Z,84.50
2019-04-30T12:00:49.606Z,85.00
2019-04-30T12:03:19.212Z,84.00
2019-04-30T12:05:49.144Z,84.10
2019-04-30T12:08:26.637Z,84.00
2019-04-30T12:10:57.151Z,80.30
2019-04-30T12:13:30.029Z,81.90
2019-04-30T12:15:59.136Z,82.10
2019-04-30T12:18:27.816Z,80.10
2019-04-30T12:20:56.525Z,78.80
2019-04-30T12:23:26.013Z,79.40
2019-04-30T12:25:54.730Z,81.70
2019-04-30T12:28:23.325Z,79.90
2019-04-30T12:30:52.053Z,80.40
2019-04-30T12:33:20.802Z,80.60
2019-04-30T12:35:51.298Z,80.70
2019-04-30T12:38:19.780Z,81.90
2019-04-30T12:40:48.506Z,81.20
2019-04-30T12:43:17.161Z,79.30
2019-04-30T12:45:45.982Z,80.10
2019-04-30T12:48:20.337Z,80.30
2019-04-30T12:50:53.433Z,79.30
2019-04-30T12:53:23.672Z,78.40
2019-04-30T12:55:53.844Z,71.60
2019-04-30T12:58:22.581Z,70.50
2019-04-30T13:00:51.267Z,67.90
2019-04-30T13:03:19.926Z,60.90
2019-04-30T13:05:50.703Z,58.90
2019-04-30T13:08:21.260Z,55.60
2019-04-30T13:10:49.891Z,55.10
2019-04-30T13:13:19.499Z,58.00
2019-04-30T13:15:48.671Z,60.30
2019-04-30T13:18:19.380Z,59.50
2019-04-30T13:20:48.987Z,57.90
2019-04-30T13:23:18.623Z,57.20
2019-04-30T13:25:51.165Z,53.70
2019-04-30T13:28:21.983Z,53.10
2019-04-30T13:30:50.649Z,47.50
2019-04-30T13:33:30.022Z,51.00
2019-04-30T13:35:58.921Z,55.30
2019-04-30T13:38:31.756Z,57.00
2019-04-30T13:41:13.690Z,59.90
2019-04-30T13:43:55.991Z,61.10
2019-04-30T13:46:25.266Z,58.10
2019-04-30T13:48:53.900Z,52.90
2019-04-30T13:51:22.524Z,51.60
2019-04-30T13:53:51.078Z,53.30
2019-04-30T13:56:20.394Z,49.70
2019-04-30T13:58:49.326Z,50.90
2019-04-30T14:01:18.903Z,53.00
2019-04-30T14:03:50.049Z,54.60
2019-04-30T14:06:32.599Z,56.60
2019-04-30T14:09:18.242Z,58.30
2019-04-30T14:11:46.938Z,60.00
2019-04-30T14:14:15.564Z,61.30
2019-04-30T14:16:44.253Z,60.40
2019-04-30T14:19:12.974Z,60.60
2019-04-30T14:21:41.515Z,62.00
2019-04-30T14:24:10.147Z,60.80
2019-04-30T14:26:39.204Z,58.90
2019-04-30T14:29:07.985Z,58.70
2019-04-30T14:31:38.730Z,58.80
2019-04-30T14:34:07.011Z,60.70
2019-04-30T14:36:35.712Z,62.90
2019-04-30T14:39:16.085Z,64.10
2019-04-30T14:41:40.201Z,65.40
2019-04-30T14:44:15.412Z,66.10
2019-04-30T14:46:45.975Z,66.10
2019-04-30T14:49:33.767Z,68.80
2019-04-30T14:52:02.890Z,70.60
2019-04-30T14:54:50.247Z,70.90
2019-04-30T14:57:35.273Z,70.70
2019-04-30T15:00:23.789Z,70.20
2019-04-30T15:03:03.083Z,68.60
2019-04-30T15:05:58.954Z,69.30
2019-04-30T15:08:30.842Z,69.60
2019-04-30T15:10:59.479Z,69.60
2019-04-30T15:13:29.528Z,70.00
2019-04-30T15:15:58.347Z,70.70
2019-04-30T15:18:28.891Z,69.90
2019-04-30T15:21:01.085Z,69.40
2019-04-30T15:23:56.380Z,68.80
2019-04-30T15:26:28.756Z,68.80
2019-04-30T15:28:59.339Z,67.60
2019-04-30T15:31:29.510Z,69.00
2019-04-30T15:34:03.426Z,68.30
2019-04-30T15:36:32.024Z,67.80
2019-04-30T15:39:10.770Z,68.00
2019-04-30T15:41:39.553Z,68.30
2019-04-30T15:44:09.128Z,68.00
2019-04-30T15:46:38.006Z,67.60
2019-04-30T15:49:06.910Z,68.10
2019-04-30T15:51:36.175Z,66.60
2019-04-30T15:54:07.794Z,66.90
2019-04-30T15:56:39.995Z,67.60
2019-04-30T15:59:24.781Z,67.60
2019-04-30T16:01:57.094Z,67.50
2019-04-30T16:04:43.524Z,68.10
2019-04-30T16:07:12.265Z,67.80
2019-04-30T16:09:45.231Z,69.50
2019-04-30T16:12:15.626Z,66.70
2019-04-30T16:14:44.318Z,67.60
2019-04-30T16:17:20.482Z,67.80
2019-04-30T16:19:48.798Z,68.20
2019-04-30T16:22:20.580Z,68.10
2019-04-30T16:24:49.517Z,68.20
2019-04-30T16:27:23.255Z,67.70
2019-04-30T16:29:52.158Z,68.40
2019-04-30T16:32:21.986Z,67.80
2019-04-30T16:34:50.528Z,68.20
2019-04-30T16:37:20.247Z,67.90
2019-04-30T16:39:48.869Z,67.50
2019-04-30T16:42:19.045Z,68.10
2019-04-30T16:44:47.819Z,68.00
2019-04-30T16:47:17.111Z,67.80
2019-04-30T16:49:46.178Z,68.50
2019-04-30T16:52:14.813Z,67.90
2019-04-30T16:54:43.443Z,67.50
2019-04-30T16:57:12.054Z,68.40
2019-04-30T16:59:42.195Z,68.10
2019-04-30T17:02:12.067Z,69.50
2019-04-30T17:04:45.398Z,69.60
2019-04-30T17:07:33.462Z,68.60
2019-04-30T17:10:08.603Z,69.40
2019-04-30T17:12:55.489Z,70.20
2019-04-30T17:15:25.761Z,70.40
2019-04-30T17:17:54.301Z,70.30
2019-04-30T17:20:23.004Z,70.90
2019-04-30T17:22:51.723Z,70.40
2019-04-30T17:25:20.446Z,70.10
2019-04-30T17:27:49.078Z,71.00
2019-04-30T17:30:19.515Z,71.10
2019-04-30T17:32:49.941Z,71.60
2019-04-30T17:35:20.295Z,71.20
2019-04-30T17:37:50.823Z,71.70
2019-04-30T17:40:19.728Z,71.90
2019-04-30T17:42:48.408Z,72.00
2019-04-30T17:45:19.519Z,72.00
2019-04-30T17:47:48.204Z,72.20
2019-04-30T17:50:18.749Z,73.20
2019-04-30T17:52:47.662Z,73.10
2019-04-30T17:55:16.423Z,72.70
2019-04-30T17:57:45.058Z,73.60
2019-04-30T18:00:19.988Z,73.90
2019-04-30T18:02:45.870Z,74.00
2019-04-30T18:05:14.557Z,74.10
2019-04-30T18:07:43.301Z,73.90
2019-04-30T18:10:13.311Z,75.00
2019-04-30T18:12:42.848Z,75.20
2019-04-30T18:15:20.505Z,75.20
2019-04-30T18:17:50.779Z,75.40
2019-04-30T18:20:21.034Z,76.00
2019-04-30T18:22:51.238Z,76.80
2019-04-30T18:25:21.485Z,77.70
2019-04-30T18:28:01.511Z,78.20
2019-04-30T18:30:31.762Z,79.20
2019-04-30T18:33:00.407Z,80.20
2019-04-30T18:35:29.009Z,81.10
2019-04-30T18:37:58.557Z,81.60
2019-04-30T18:40:27.263Z,82.10
2019-04-30T18:42:56.030Z,82.60
2019-04-30T18:45:24.708Z,83.30
2019-04-30T18:47:53.349Z,84.10
2019-04-30T18:50:21.966Z,85.00
2019-04-30T18:52:52.400Z,85.90
2019-04-30T18:55:21.014Z,86.00
2019-04-30T18:57:56.372Z,86.10
2019-04-30T19:00:39.586Z,86.70
2019-04-30T19:03:08.688Z,86.90
2019-04-30T19:05:39.294Z,87.60
2019-04-30T19:08:09.874Z,87.60
2019-04-30T19:10:58.882Z,87.80
2019-04-30T19:13:30.318Z,89.00
2019-04-30T19:16:18.498Z,88.50
2019-04-30T19:18:35.555Z,88.30
2019-04-30T19:21:11.757Z,88.80
2019-04-30T19:23:40.326Z,89.10
2019-04-30T19:26:09.009Z,89.30
2019-04-30T19:28:38.721Z,89.50
2019-04-30T19:31:09.196Z,89.70
2019-04-30T19:33:38.943Z,89.30
2019-04-30T19:36:09.641Z,89.40
2019-04-30T19:38:37.879Z,89.30
2019-04-30T19:41:06.578Z,90.10
2019-04-30T19:43:35.114Z,90.00
2019-04-30T19:46:03.758Z,89.90
2019-04-30T19:48:32.440Z,90.00
2019-04-30T19:51:01.074Z,90.10
2019-04-30T19:53:30.633Z,90.10
2019-04-30T19:55:59.197Z,90.20
2019-04-30T19:58:46.354Z,90.50
2019-04-30T20:00:59.514Z,90.10
2019-04-30T20:03:29.271Z,90.20
2019-04-30T20:05:58.582Z,90.30
2019-04-30T20:08:28.693Z,90.40
2019-04-30T20:10:59.314Z,90.40
2019-04-30T20:13:34.016Z,90.40
2019-04-30T20:15:59.367Z,90.70
2019-04-30T20:18:29.184Z,90.40
2019-04-30T20:21:01.206Z,90.60
2019-04-30T20:23:29.917Z,90.70
2019-04-30T20:25:58.481Z,90.70
2019-04-30T20:28:38.540Z,90.60
2019-04-30T20:30:57.307Z,90.60
2019-04-30T20:33:26.016Z,90.80
2019-04-30T20:35:54.554Z,90.60
2019-04-30T20:38:36.350Z,90.80
2019-04-30T20:41:06.614Z,90.80
2019-04-30T20:43:35.353Z,90.90
2019-04-30T20:46:04.010Z,90.70
2019-04-30T20:48:32.639Z,90.90
2019-04-30T20:51:01.536Z,90.90
2019-04-30T20:53:30.258Z,90.90
2019-04-30T20:55:59.334Z,91.00
2019-04-30T20:58:28.049Z,91.20
2019-04-30T21:01:03.437Z,91.20
2019-04-30T21:03:26.871Z,91.00
2019-04-30T21:05:55.425Z,91.20
2019-04-30T21:08:24.141Z,90.90
2019-04-30T21:10:52.606Z,91.20
2019-04-30T21:13:21.309Z,91.30
2019-04-30T21:15:49.924Z,90.90
2019-04-30T21:18:19.580Z,91.20
2019-04-30T21:20:49.703Z,91.40
2019-04-30T21:23:19.417Z,91.50
2019-04-30T21:25:48.778Z,91.50
2019-04-30T21:28:19.547Z,91.40
2019-04-30T21:30:47.890Z,91.40
2019-04-30T21:33:30.428Z,91.30
2019-04-30T21:36:00.662Z,91.40
2019-04-30T21:38:29.318Z,91.50
2019-04-30T21:41:00.947Z,91.30
2019-04-30T21:43:28.103Z,91.50
2019-04-30T21:45:56.666Z,91.50
2019-04-30T21:48:25.273Z,91.40
2019-04-30T21:50:53.831Z,91.50
2019-04-30T21:53:22.374Z,91.40
2019-04-30T21:55:50.870Z,91.40
2019-04-30T21:58:20.433Z,91.50
2019-04-30T22:01:02.889Z,91.60
2019-04-30T22:03:31.585Z,91.70
2019-04-30T22:06:00.156Z,91.60
2019-04-30T22:08:28.851Z,91.60
2019-04-30T22:10:58.207Z,91.80
2019-04-30T22:13:27.009Z,91.80
2019-04-30T22:15:55.566Z,91.80
2019-04-30T22:18:24.177Z,91.90
2019-04-30T22:20:52.810Z,91.80
2019-04-30T22:23:21.494Z,91.90
2019-04-30T22:25:50.081Z,91.90
2019-04-30T22:28:18.670Z,91.70
2019-04-30T22:30:48.331Z,91.90
2019-04-30T22:33:18.903Z,92.00
2019-04-30T22:35:52.545Z,92.10
2019-04-30T22:38:25.748Z,92.00
2019-04-30T22:40:54.306Z,92.20
2019-04-30T22:43:22.928Z,92.30
2019-04-30T22:45:59.586Z,92.30
2019-04-30T22:48:28.766Z,92.40
2019-04-30T22:50:57.347Z,92.40
2019-04-30T22:53:25.897Z,92.40
2019-04-30T22:55:54.525Z,92.40
2019-04-30T22:58:22.994Z,92.40
2019-04-30T23:00:53.338Z,92.60
2019-04-30T23:03:26.463Z,92.80
2019-04-30T23:05:55.262Z,93.00
2019-04-30T23:08:23.939Z,92.90
2019-04-30T23:10:52.572Z,92.80
2019-04-30T23:13:21.178Z,93.10
2019-04-30T23:15:52.850Z,93.10
2019-04-30T23:18:21.466Z,93.00
2019-04-30T23:20:50.918Z,93.10
2019-04-30T23:23:19.473Z,93.20
2019-04-30T23:25:48.082Z,93.20
2019-04-30T23:28:16.661Z,93.40
2019-04-30T23:30:45.222Z,93.30
2019-04-30T23:33:13.863Z,93.20
2019-04-30T23:35:42.467Z,93.50
2019-04-30T23:38:11.110Z,93.40
2019-04-30T23:40:50.956Z,93.60
2019-04-30T23:43:20.349Z,94.20
2019-04-30T23:45:49.125Z,93.60
2019-04-30T23:48:17.786Z,93.50
2019-04-30T23:50:46.379Z,93.70
2019-04-30T23:53:15.016Z,93.60
2019-04-30T23:55:43.613Z,93.80
2019-04-30T23:58:12.374Z,93.90
